createdAt,value
2022-10-22T04:25:23.101Z,91.97
2022-10-22T04:28:00.232Z,91.67
2022-10-22T04:30:32.870Z,91.78
2022-10-22T05:04:44.504Z,91.73
2022-10-22T05:07:11.179Z,92.02
2022-10-22T05:09:38.107Z,91.88
2022-10-22T05:12:06.573Z,91.78
2022-10-22T05:14:35.498Z,91.55
2022-10-22T05:17:02.166Z,91.77
2022-10-22T05:19:30.910Z,91.79
2022-10-22T05:22:02.614Z,91.75
2022-10-22T05:24:30.213Z,91.43
2022-10-22T05:26:58.641Z,91.34
2022-10-22T05:29:27.959Z,91.68
2022-10-22T05:31:54.714Z,91.32
2022-10-22T05:34:21.444Z,91.60
2022-10-22T05:36:48.101Z,91.26
2022-10-22T05:39:14.792Z,91.29
2022-10-22T05:41:41.675Z,91.58
2022-10-22T05:44:08.405Z,91.18
2022-10-22T05:46:36.570Z,91.60
2022-10-22T05:49:05.627Z,91.31
2022-10-22T05:51:34.337Z,91.45
2022-10-22T05:54:02.765Z,91.42
2022-10-22T05:56:32.140Z,91.34
2022-10-22T05:58:59.629Z,91.41
2022-10-22T06:01:31.859Z,91.40
2022-10-22T06:04:00.478Z,91.30
2022-10-22T06:06:29.307Z,91.44
2022-10-22T06:08:56.823Z,91.04
2022-10-22T06:11:23.867Z,91.39
2022-10-22T06:13:50.889Z,91.24
2022-10-22T06:16:17.836Z,91.01
2022-10-22T06:18:44.522Z,90.97
2022-10-22T06:21:14.159Z,91.31
2022-10-22T06:23:42.072Z,91.30
2022-10-22T06:26:09.196Z,91.08
2022-10-22T06:28:36.523Z,91.21
2022-10-22T06:31:04.146Z,91.10
2022-10-22T06:33:32.511Z,90.83
2022-10-22T06:36:11.097Z,90.87
2022-10-22T06:38:37.818Z,91.20
2022-10-22T06:41:06.059Z,90.80
2022-10-22T06:43:32.746Z,90.95
2022-10-22T06:46:04.169Z,90.93
2022-10-22T06:48:31.331Z,90.82
2022-10-22T06:51:02.207Z,90.80
2022-10-22T06:53:31.464Z,90.61
2022-10-22T06:55:58.141Z,90.87
2022-10-22T06:58:25.002Z,90.75
2022-10-22T07:01:10.198Z,90.58
2022-10-22T07:03:38.329Z,90.76
2022-10-22T07:06:07.784Z,90.95
2022-10-22T07:08:35.114Z,90.92
2022-10-22T07:11:13.296Z,90.80
2022-10-22T07:13:40.049Z,90.64
2022-10-22T07:16:07.894Z,90.68
2022-10-22T07:18:35.526Z,90.72
2022-10-22T07:21:02.540Z,90.78
2022-10-22T07:23:29.524Z,90.76
2022-10-22T07:28:43.373Z,90.71
2022-10-22T07:31:12.060Z,90.42
2022-10-22T07:33:39.349Z,90.24
2022-10-22T07:36:08.739Z,90.48
2022-10-22T07:38:36.248Z,90.60
2022-10-22T07:41:03.981Z,90.23
2022-10-22T07:43:30.768Z,90.48
2022-10-22T07:45:57.502Z,90.46
2022-10-22T07:48:24.499Z,90.20
2022-10-22T07:50:52.065Z,90.30
2022-10-22T07:53:19.029Z,90.23
2022-10-22T07:55:49.141Z,90.34
2022-10-22T07:58:16.715Z,90.35
2022-10-22T08:00:43.444Z,90.13
2022-10-22T08:03:11.713Z,90.30
2022-10-22T08:05:39.474Z,90.14
2022-10-22T08:08:06.908Z,90.11
2022-10-22T08:10:34.088Z,90.25
2022-10-22T08:13:00.903Z,90.16
2022-10-22T08:15:27.600Z,89.98
2022-10-22T08:17:54.418Z,90.29
2022-10-22T08:20:21.156Z,90.08
2022-10-22T08:22:47.931Z,89.85
2022-10-22T08:25:15.646Z,90.02
2022-10-22T08:27:42.872Z,90.14
2022-10-22T08:30:10.784Z,90.17
2022-10-22T08:32:37.745Z,89.84
2022-10-22T08:35:04.838Z,89.77
2022-10-22T08:37:31.561Z,89.81
2022-10-22T08:39:58.248Z,90.08
2022-10-22T08:42:49.695Z,90.02
2022-10-22T08:45:20.474Z,90.13
2022-10-22T08:47:59.039Z,90.07
2022-10-22T08:50:37.369Z,89.93
2022-10-22T08:53:07.943Z,90.15
2022-10-22T08:55:37.407Z,90.33
2022-10-22T08:58:20.499Z,90.33
2022-10-22T09:01:00.093Z,90.28
2022-10-22T09:03:36.732Z,90.28
2022-10-22T09:06:33.760Z,90.35
2022-10-22T09:09:01.529Z,90.07
2022-10-22T09:11:32.795Z,90.12
2022-10-22T09:14:00.411Z,90.15
2022-10-22T09:16:36.695Z,89.79
2022-10-22T09:19:13.031Z,89.92
2022-10-22T09:21:52.163Z,89.72
2022-10-22T09:24:38.731Z,89.78
2022-10-22T09:27:14.209Z,89.60
2022-10-22T09:29:41.376Z,89.87
2022-10-22T09:32:08.328Z,89.65
2022-10-22T09:34:35.109Z,89.97
2022-10-22T09:37:08.041Z,89.49
2022-10-22T09:39:51.840Z,89.77
2022-10-22T09:42:20.473Z,89.51
2022-10-22T09:44:56.041Z,89.63
2022-10-22T09:48:01.032Z,89.61
2022-10-22T09:50:39.211Z,89.31
2022-10-22T09:53:19.015Z,89.43
2022-10-22T09:55:53.870Z,89.13
2022-10-22T09:58:20.980Z,89.16
2022-10-22T10:01:00.503Z,89.32
2022-10-22T10:03:31.841Z,88.90
2022-10-22T10:06:03.180Z,88.96
2022-10-22T10:08:33.208Z,89.10
2022-10-22T10:11:03.317Z,88.85
2022-10-22T10:13:36.034Z,88.67
2022-10-22T10:16:08.645Z,88.75
2022-10-22T10:19:00.726Z,88.61
2022-10-22T10:21:50.543Z,88.91
2022-10-22T10:24:43.757Z,88.58
2022-10-22T10:27:22.710Z,88.50
2022-10-22T10:30:19.682Z,88.80
2022-10-22T10:32:59.632Z,88.77
2022-10-22T10:35:38.745Z,88.31
2022-10-22T10:38:31.413Z,88.37
2022-10-22T10:41:03.088Z,88.44
2022-10-22T10:43:41.067Z,88.56
2022-10-22T10:46:38.756Z,88.33
2022-10-22T10:49:11.318Z,88.41
2022-10-22T10:51:50.479Z,88.28
2022-10-22T10:54:48.503Z,88.08
2022-10-22T10:57:37.023Z,87.84
2022-10-22T11:00:10.527Z,88.02
2022-10-22T11:03:26.923Z,87.83
2022-10-22T11:06:04.239Z,87.50
2022-10-22T11:08:57.445Z,87.49
2022-10-22T11:11:50.845Z,87.57
2022-10-22T11:21:38.262Z,86.19
2022-10-22T11:24:53.657Z,85.96
2022-10-22T11:30:42.153Z,84.87
2022-10-22T11:33:27.539Z,84.93
2022-10-22T11:35:59.018Z,84.67
2022-10-22T11:38:51.491Z,84.56
2022-10-22T11:41:37.680Z,84.22
2022-10-22T11:47:42.635Z,84.26
2022-10-22T11:50:43.594Z,84.14
2022-10-22T11:53:42.553Z,84.05
2022-10-22T12:03:59.401Z,83.01
2022-10-22T12:07:07.469Z,82.79
2022-10-22T12:12:29.824Z,82.84
2022-10-22T12:15:00.133Z,82.46
2022-10-22T12:17:35.380Z,82.45
2022-10-22T12:20:14.762Z,82.32
2022-10-22T12:23:00.161Z,81.97
2022-10-22T12:25:46.692Z,81.67
2022-10-22T12:28:28.482Z,82.04
2022-10-22T12:31:22.214Z,81.95
2022-10-22T12:34:15.155Z,81.97
2022-10-22T12:36:56.249Z,82.07
2022-10-22T12:39:27.113Z,81.81
2022-10-22T12:41:56.256Z,81.88
2022-10-22T12:44:25.506Z,81.28
2022-10-22T12:46:55.978Z,81.49
2022-10-22T12:49:34.464Z,81.24
2022-10-22T12:52:10.875Z,80.84
2022-10-22T12:54:40.294Z,80.59
2022-10-22T12:57:38.935Z,80.27
2022-10-22T13:00:55.379Z,79.98
2022-10-22T13:03:55.518Z,79.65
2022-10-22T13:06:39.644Z,79.30
2022-10-22T13:09:28.132Z,78.98
2022-10-22T13:12:04.203Z,78.73
2022-10-22T13:14:49.224Z,78.74
2022-10-22T13:17:47.951Z,78.62
2022-10-22T13:20:24.433Z,78.61
2022-10-22T13:23:00.666Z,78.91
2022-10-22T13:30:22.882Z,78.47
2022-10-22T13:33:51.905Z,78.37
2022-10-22T13:36:36.590Z,78.38
2022-10-22T13:46:09.743Z,77.30
2022-10-22T13:49:08.045Z,76.74
2022-10-22T13:51:51.741Z,76.24
2022-10-22T13:54:32.197Z,75.80
2022-10-22T13:57:29.651Z,75.33
2022-10-22T14:00:27.988Z,74.62
2022-10-22T14:03:23.453Z,73.66
2022-10-22T14:05:58.272Z,73.72
2022-10-22T14:08:26.205Z,73.39
2022-10-22T14:10:53.174Z,72.95
2022-10-22T14:13:20.723Z,72.81
2022-10-22T14:15:49.904Z,72.19
2022-10-22T14:18:25.601Z,71.65
2022-10-22T14:20:54.356Z,71.03
2022-10-22T14:23:22.720Z,70.82
2022-10-22T14:25:51.155Z,70.75
2022-10-22T14:28:18.211Z,70.38
2022-10-22T14:30:45.256Z,69.77
2022-10-22T14:33:11.837Z,69.51
2022-10-22T14:35:38.505Z,69.42
2022-10-22T14:38:05.309Z,69.01
2022-10-22T14:40:32.017Z,69.10
2022-10-22T14:43:01.180Z,68.84
2022-10-22T14:45:27.941Z,69.12
2022-10-22T14:47:57.534Z,68.86
2022-10-22T14:50:25.193Z,69.09
2022-10-22T14:58:48.291Z,69.65
2022-10-22T15:06:43.534Z,69.28
2022-10-22T15:19:22.115Z,70.80
2022-10-22T15:21:53.943Z,71.36
2022-10-22T15:24:23.620Z,71.71
2022-10-22T15:26:54.112Z,71.91
2022-10-22T15:29:20.849Z,72.70
2022-10-22T15:31:57.897Z,72.72
2022-10-22T15:34:32.843Z,73.13
2022-10-22T15:37:01.610Z,73.44
2022-10-22T15:39:28.633Z,73.74
2022-10-22T15:48:32.884Z,74.83
2022-10-22T15:54:48.596Z,75.90
2022-10-22T16:00:32.110Z,76.45
2022-10-22T16:06:37.917Z,77.25
2022-10-22T16:09:07.908Z,77.35
2022-10-22T16:11:35.657Z,77.58
2022-10-22T16:14:02.597Z,77.87
2022-10-22T16:16:34.651Z,77.59
2022-10-22T16:19:01.634Z,77.94
2022-10-22T16:21:28.914Z,78.12
2022-10-22T16:23:55.580Z,78.42
2022-10-22T16:26:22.385Z,78.56
2022-10-22T16:28:49.066Z,78.55
2022-10-22T16:31:17.488Z,78.98
2022-10-22T16:33:47.765Z,79.16
2022-10-22T16:37:43.668Z,79.30
2022-10-22T16:47:49.424Z,79.93
2022-10-22T16:51:35.329Z,80.43
2022-10-22T16:54:36.193Z,80.48
2022-10-22T16:57:49.344Z,80.96
2022-10-22T17:00:26.473Z,81.14
2022-10-22T17:04:08.269Z,81.24
2022-10-22T17:06:47.267Z,81.50
2022-10-22T17:09:17.210Z,81.63
2022-10-22T17:31:52.464Z,82.28
2022-10-22T18:18:43.174Z,82.38
2022-10-22T18:33:24.310Z,82.27
2022-10-22T18:35:52.899Z,82.20
2022-10-22T18:38:21.975Z,82.37
2022-10-22T18:40:49.961Z,82.04
2022-10-22T18:43:17.503Z,82.14
2022-10-22T18:45:46.163Z,82.03
2022-10-22T18:48:15.497Z,82.14
2022-10-22T18:50:42.387Z,82.40
2022-10-22T18:53:09.354Z,82.42
2022-10-22T18:55:38.793Z,82.38
2022-10-22T18:58:06.012Z,82.16
2022-10-22T19:00:33.101Z,81.98
2022-10-22T19:02:59.891Z,82.34
2022-10-22T19:05:26.624Z,82.36
2022-10-22T19:07:53.316Z,82.38
2022-10-22T19:10:20.236Z,82.15
2022-10-22T19:12:47.019Z,82.19
2022-10-22T19:15:13.715Z,82.16
2022-10-22T19:17:40.673Z,82.44
2022-10-22T19:20:08.062Z,82.33
2022-10-22T19:22:34.771Z,82.18
2022-10-22T19:25:01.506Z,82.58
2022-10-22T19:27:28.182Z,82.54
2022-10-22T19:29:57.276Z,82.21
2022-10-22T19:32:26.303Z,82.65
2022-10-22T19:34:58.089Z,82.78
2022-10-22T19:37:24.807Z,82.41
2022-10-22T19:39:51.558Z,82.61
2022-10-22T19:42:18.250Z,82.95
2022-10-22T19:44:44.972Z,83.03
2022-10-22T19:47:11.780Z,83.03
2022-10-22T19:49:38.740Z,82.92
2022-10-22T19:52:05.612Z,83.01
2022-10-22T19:54:32.421Z,83.07
2022-10-22T19:56:59.160Z,82.95
2022-10-22T19:59:29.850Z,82.94
2022-10-22T20:01:58.274Z,82.73
2022-10-22T20:04:26.850Z,83.12
2022-10-22T20:06:54.665Z,83.07
2022-10-22T20:09:21.416Z,83.05
2022-10-22T20:11:48.173Z,83.07
2022-10-22T20:14:14.945Z,83.01
2022-10-22T20:16:42.490Z,82.83
2022-10-22T20:19:10.987Z,82.68
2022-10-22T20:21:37.795Z,83.09
2022-10-22T20:24:04.585Z,82.94
2022-10-22T20:26:31.815Z,82.97
2022-10-22T20:28:58.879Z,83.07
2022-10-22T20:31:28.582Z,82.93
2022-10-22T20:33:57.606Z,82.98
2022-10-22T22:36:42.446Z,85.32
